Time;durP1;ratioP1;P1;durP2;ratioP2;P2;SDS_P1;SDS_P2;PMS_P1;PMS_P2;Temp;Humidity;BMP_temperature;BMP_pressure;BME280_temperature;BME280_humidity;BME280_pressure;Samples;Min_cycle;Max_cycle;Signal;HPM_P1;HPM_P2
2021/03/08 00:00:47;;;;;;;12.55;5.95;;;;;;;3.22;54.99;99877.30;1763235;78;21207;-67
2021/03/08 00:03:15;;;;;;;12.10;6.83;;;;;;;3.23;54.93;99869.41;1768992;78;21176;-68
2021/03/08 00:05:43;;;;;;;12.43;6.75;;;;;;;3.20;55.05;99870.88;1765850;78;21209;-66
2021/03/08 00:08:12;;;;;;;16.00;7.28;;;;;;;3.19;55.09;99865.77;1800916;78;21144;-67
2021/03/08 00:10:41;;;;;;;12.20;6.53;;;;;;;3.19;55.10;99865.30;1800097;77;21212;-66
2021/03/08 00:13:09;;;;;;;11.00;6.22;;;;;;;3.18;55.20;99855.84;1749087;79;21199;-65
2021/03/08 00:15:36;;;;;;;13.35;6.47;;;;;;;3.18;55.36;99862.34;1812860;78;21211;-65
2021/03/08 00:18:05;;;;;;;12.55;6.85;;;;;;;3.19;55.26;99862.70;1785155;78;21132;-58
2021/03/08 00:20:33;;;;;;;11.53;6.45;;;;;;;3.16;55.42;99853.77;1816886;77;21143;-56
2021/03/08 00:23:00;;;;;;;10.58;6.28;;;;;;;3.15;55.43;99849.05;1782159;78;21605;-56
2021/03/08 00:25:32;;;;;;;10.28;5.55;;;;;;;3.18;55.54;99845.89;1801595;78;21163;-56
2021/03/08 00:28:01;;;;;;;10.32;5.62;;;;;;;3.20;55.47;99843.59;1790520;78;21117;-57
2021/03/08 00:30:29;;;;;;;13.10;6.47;;;;;;;3.21;55.44;99847.02;1811267;78;21188;-58
2021/03/08 00:32:58;;;;;;;10.43;6.42;;;;;;;3.19;55.41;99841.90;1813180;77;21164;-57
2021/03/08 00:35:26;;;;;;;9.75;6.05;;;;;;;3.18;55.57;99828.98;1815113;78;21369;-57
2021/03/08 00:37:54;;;;;;;10.05;5.90;;;;;;;3.16;55.66;99830.38;1811735;78;21118;-57
2021/03/08 00:40:22;;;;;;;12.90;6.20;;;;;;;3.17;55.68;99826.86;1809386;77;21120;-57
2021/03/08 00:42:50;;;;;;;13.48;6.60;;;;;;;3.16;55.70;99822.13;1788717;78;21160;-56
2021/03/08 00:45:22;;;;;;;11.83;6.17;;;;;;;3.14;55.80;99808.39;1794538;78;21624;-57
2021/03/08 00:47:54;;;;;;;9.58;6.03;;;;;;;3.15;55.86;99813.95;1780977;78;21596;-57
2021/03/08 00:50:28;;;;;;;11.12;6.33;;;;;;;3.17;55.80;99807.36;1784120;80;21366;-58
2021/03/08 00:52:56;;;;;;;14.58;6.70;;;;;;;3.19;55.60;99812.00;1813280;77;21171;-57
2021/03/08 00:55:27;;;;;;;10.85;6.30;;;;;;;3.18;55.70;99814.69;1788561;78;21601;-57
2021/03/08 00:57:56;;;;;;;10.10;5.90;;;;;;;3.18;55.74;99810.78;1813065;77;21150;-57
2021/03/08 01:00:26;;;;;;;10.15;6.35;;;;;;;3.15;55.79;99805.32;1810726;77;21163;-57
2021/03/08 01:02:56;;;;;;;12.37;7.22;;;;;;;3.15;55.90;99797.05;1824653;77;21580;-57
2021/03/08 01:05:26;;;;;;;9.78;5.55;;;;;;;3.17;55.97;99793.06;1814845;77;21180;-57
2021/03/08 01:07:54;;;;;;;12.25;6.65;;;;;;;3.19;55.98;99795.58;1813370;77;21153;-57
2021/03/08 01:10:26;;;;;;;12.58;6.60;;;;;;;3.20;55.90;99794.19;1786166;78;21124;-57
2021/03/08 01:12:54;;;;;;;12.00;6.80;;;;;;;3.18;55.92;99784.79;1815095;77;21358;-57
2021/03/08 01:15:22;;;;;;;10.68;5.97;;;;;;;3.18;55.96;99779.14;1814441;77;21158;-57
2021/03/08 01:17:51;;;;;;;10.30;6.25;;;;;;;3.18;56.06;99802.98;1787263;78;21171;-56
2021/03/08 01:20:20;;;;;;;12.60;6.25;;;;;;;3.18;56.06;99780.89;1808944;78;21147;-57
2021/03/08 01:22:47;;;;;;;11.57;6.62;;;;;;;3.16;56.08;99774.03;1771374;79;21576;-57
2021/03/08 01:25:27;;;;;;;11.40;6.30;;;;;;;3.16;56.13;99770.58;1779173;78;21197;-57
2021/03/08 01:27:55;;;;;;;15.40;6.62;;;;;;;3.15;56.17;99774.95;1803841;78;21170;-58
2021/03/08 01:30:26;;;;;;;10.93;5.90;;;;;;;3.14;56.27;99766.80;1808333;77;21164;-57
2021/03/08 01:32:55;;;;;;;10.93;6.17;;;;;;;3.14;56.28;99762.04;1788740;78;21168;-57
2021/03/08 01:35:24;;;;;;;9.45;5.87;;;;;;;3.18;56.33;99762.25;1746356;80;21220;-57
2021/03/08 01:37:51;;;;;;;12.47;6.95;;;;;;;3.20;56.20;99766.89;1779234;78;21211;-57
2021/03/08 01:40:20;;;;;;;11.15;6.22;;;;;;;3.19;56.23;99762.60;1804047;77;21179;-57
2021/03/08 01:42:48;;;;;;;12.43;6.30;;;;;;;3.19;56.20;99768.27;1808187;78;21113;-58
2021/03/08 01:45:16;;;;;;;14.10;6.00;;;;;;;3.19;56.17;99774.30;1807370;78;21164;-57
2021/03/08 01:47:45;;;;;;;11.68;6.90;;;;;;;3.20;56.21;99766.89;1780645;78;21107;-57
2021/03/08 01:50:18;;;;;;;13.50;6.97;;;;;;;3.18;56.22;99766.59;1790287;79;21204;-58
2021/03/08 01:52:46;;;;;;;13.78;6.17;;;;;;;3.19;56.20;99773.47;1788562;78;21157;-58
2021/03/08 01:55:13;;;;;;;8.40;5.90;;;;;;;3.16;56.41;99779.68;1756913;78;21534;-57
2021/03/08 01:57:41;;;;;;;10.18;5.58;;;;;;;3.15;56.36;99771.05;1783432;78;21170;-57
2021/03/08 02:00:12;;;;;;;13.58;7.10;;;;;;;3.16;56.33;99762.34;1781251;80;21158;-57
2021/03/08 02:02:42;;;;;;;10.18;5.90;;;;;;;3.16;56.46;99773.17;1802226;78;21203;-57
2021/03/08 02:05:16;;;;;;;12.55;6.40;;;;;;;3.17;56.44;99763.16;1800492;77;21195;-57
2021/03/08 02:07:43;;;;;;;13.28;7.62;;;;;;;3.18;56.43;99762.25;1746779;79;21235;-56
2021/03/08 02:10:15;;;;;;;11.00;6.83;;;;;;;3.20;56.43;99775.16;1802218;78;21101;-56
2021/03/08 02:12:54;;;;;;;11.70;5.47;;;;;;;3.22;56.44;99761.12;1803392;78;21110;-57
2021/03/08 02:15:45;;;;;;;10.28;5.97;;;;;;;3.21;56.38;99759.47;1802501;78;21359;-58
2021/03/08 02:18:53;;;;;;;12.40;6.80;;;;;;;3.22;56.40;99769.40;1795071;79;21156;-57
2021/03/08 02:21:26;;;;;;;12.53;6.87;;;;;;;3.22;56.41;99774.13;1799546;79;21156;-56
2021/03/08 02:24:31;;;;;;;10.45;6.30;;;;;;;3.23;56.37;99768.45;1768337;79;21117;-56
2021/03/08 02:27:06;;;;;;;11.20;5.87;;;;;;;3.23;56.42;99771.91;1795211;77;21560;-57
2021/03/08 02:30:16;;;;;;;8.28;5.70;;;;;;;3.23;56.42;99768.45;1780932;79;21164;-56
2021/03/08 02:32:45;;;;;;;10.65;6.72;;;;;;;3.25;56.44;99764.84;1773164;79;21183;-56
2021/03/08 02:35:20;;;;;;;10.88;5.97;;;;;;;3.25;56.44;99764.84;1769771;79;21085;-57
2021/03/08 02:37:58;;;;;;;11.80;6.00;;;;;;;3.27;56.36;99764.76;1802578;79;21112;-57
2021/03/08 02:40:47;;;;;;;12.82;6.92;;;;;;;3.23;56.34;99761.52;1771088;79;21160;-57
2021/03/08 02:43:44;;;;;;;12.05;6.65;;;;;;;3.22;56.42;99768.10;1769857;80;22202;-57
2021/03/08 02:46:21;;;;;;;11.35;7.08;;;;;;;3.20;56.51;99760.86;1792884;79;21167;-57
2021/03/08 02:48:49;;;;;;;12.05;5.95;;;;;;;3.16;56.61;99758.44;1776036;79;21163;-57
2021/03/08 02:51:17;;;;;;;11.08;6.17;;;;;;;3.16;56.66;99757.58;1772576;79;21226;-57
2021/03/08 02:53:44;;;;;;;10.48;6.35;;;;;;;3.16;56.61;99754.54;1770190;79;21116;-57
2021/03/08 02:56:15;;;;;;;9.83;5.85;;;;;;;3.15;56.67;99750.73;1777473;79;21230;-58
2021/03/08 02:58:45;;;;;;;9.55;6.83;;;;;;;3.13;56.75;99750.81;1793175;79;21635;-56
2021/03/08 03:01:13;;;;;;;10.03;5.58;;;;;;;3.15;56.76;99750.25;1800062;79;21559;-56
2021/03/08 03:03:44;;;;;;;10.20;6.25;;;;;;;3.12;56.78;99745.23;1794613;79;21152;-56
2021/03/08 03:06:12;;;;;;;11.48;5.67;;;;;;;3.13;56.85;99743.02;1773389;79;21160;-57
2021/03/08 03:08:41;;;;;;;14.05;6.08;;;;;;;3.14;56.85;99739.95;1772044;79;21151;-57
2021/03/08 03:11:09;;;;;;;12.07;7.22;;;;;;;3.15;56.86;99735.13;1734416;79;21159;-57
2021/03/08 03:13:39;;;;;;;12.05;7.22;;;;;;;3.14;56.97;99735.60;1798788;79;21104;-57
2021/03/08 03:16:07;;;;;;;13.40;7.40;;;;;;;3.10;57.08;99739.30;1789089;79;21147;-57
2021/03/08 03:18:36;;;;;;;14.25;6.20;;;;;;;3.07;57.20;99739.95;1788094;79;21121;-57
2021/03/08 03:21:05;;;;;;;12.50;6.60;;;;;;;3.05;57.29;99735.30;1746387;79;21363;-58
2021/03/08 03:23:37;;;;;;;11.78;6.20;;;;;;;3.03;57.29;99748.86;1789538;79;21105;-56
2021/03/08 03:26:06;;;;;;;13.30;6.78;;;;;;;2.98;57.44;99747.83;1788788;79;21140;-57
2021/03/08 03:28:34;;;;;;;12.33;7.17;;;;;;;2.97;57.42;99742.24;1785493;79;21184;-57
2021/03/08 03:31:03;;;;;;;11.80;6.83;;;;;;;2.94;57.56;99746.31;1789427;79;21186;-57
2021/03/08 03:33:31;;;;;;;13.28;6.95;;;;;;;2.97;57.59;99744.84;1785250;79;21213;-56
2021/03/08 03:35:59;;;;;;;10.63;6.50;;;;;;;2.96;57.71;99747.09;1790502;79;21202;-57
2021/03/08 03:38:27;;;;;;;13.70;7.58;;;;;;;2.94;57.75;99743.27;1788697;79;21543;-57
2021/03/08 03:40:55;;;;;;;10.43;6.15;;;;;;;2.96;57.80;99750.98;1790390;79;21160;-57
2021/03/08 03:43:23;;;;;;;14.03;7.65;;;;;;;2.99;57.76;99748.18;1795046;78;21140;-56
2021/03/08 03:45:53;;;;;;;10.13;6.15;;;;;;;2.99;57.66;99748.18;1794417;79;21362;-57
2021/03/08 03:48:21;;;;;;;15.03;7.55;;;;;;;2.97;57.75;99753.47;1789202;79;21147;-57
2021/03/08 03:50:49;;;;;;;10.82;6.40;;;;;;;2.98;57.90;99762.95;1786400;79;21101;-57
2021/03/08 03:53:17;;;;;;;10.48;6.55;;;;;;;2.96;58.71;99753.58;1794765;79;21168;-57
2021/03/08 03:55:46;;;;;;;13.45;7.58;;;;;;;2.93;58.75;99755.06;1789510;78;21148;-56
2021/03/08 03:58:22;;;;;;;11.28;6.37;;;;;;;2.91;58.66;99754.31;1770554;79;21160;-56
2021/03/08 04:01:05;;;;;;;12.75;6.70;;;;;;;2.86;58.78;99755.88;1787738;79;21172;-57
2021/03/08 04:03:57;;;;;;;10.75;6.67;;;;;;;2.84;58.68;99746.48;1785035;79;21128;-57
2021/03/08 04:06:36;;;;;;;17.52;7.60;;;;;;;2.81;58.79;99750.11;1800820;77;21169;-60
2021/03/08 04:09:04;;;;;;;11.25;6.53;;;;;;;2.78;58.82;99746.39;1750994;80;21165;-57
2021/03/08 04:11:35;;;;;;;12.25;7.42;;;;;;;2.78;58.68;99734.22;1753334;79;21169;-56
2021/03/08 04:14:04;;;;;;;10.30;6.42;;;;;;;2.78;58.40;99738.59;1784394;79;21207;-58
2021/03/08 04:16:35;;;;;;;13.78;7.80;;;;;;;2.79;58.37;99741.55;1793189;78;21144;-58
2021/03/08 04:19:03;;;;;;;12.00;6.35;;;;;;;2.79;58.37;99744.14;1782482;79;21188;-58
2021/03/08 04:21:37;;;;;;;11.12;6.50;;;;;;;2.85;58.32;99745.56;1782278;79;21153;-58
2021/03/08 04:24:06;;;;;;;11.03;6.33;;;;;;;2.86;58.08;99748.52;1751669;80;21599;-57
2021/03/08 04:26:35;;;;;;;12.45;7.25;;;;;;;2.88;58.00;99733.23;1751387;80;21191;-57
2021/03/08 04:29:02;;;;;;;10.10;6.37;;;;;;;2.89;57.97;99744.45;1734277;80;21215;-58
2021/03/08 04:31:34;;;;;;;11.18;6.15;;;;;;;2.89;57.96;99734.91;1773136;79;21175;-56
2021/03/08 04:34:02;;;;;;;10.32;6.35;;;;;;;2.89;57.97;99744.01;1763869;80;21205;-58
2021/03/08 04:36:30;;;;;;;13.20;7.67;;;;;;;2.87;58.03;99755.41;1805697;77;21376;-58
2021/03/08 04:38:58;;;;;;;11.75;7.45;;;;;;;2.85;58.16;99746.87;1780685;78;21200;-58
2021/03/08 04:41:28;;;;;;;12.80;6.97;;;;;;;2.82;58.34;99741.37;1806199;77;21605;-57
2021/03/08 04:43:58;;;;;;;15.03;7.40;;;;;;;2.81;58.53;99750.55;1803261;77;21108;-58
2021/03/08 04:46:25;;;;;;;12.53;7.08;;;;;;;2.79;58.67;99750.64;1782471;78;21145;-58
2021/03/08 04:48:54;;;;;;;12.88;7.65;;;;;;;2.79;58.84;99749.34;1802205;78;21389;-58
2021/03/08 04:51:22;;;;;;;11.43;6.37;;;;;;;2.77;59.39;99755.95;1781974;78;21178;-57
2021/03/08 04:53:49;;;;;;;11.05;6.67;;;;;;;2.76;59.76;99750.84;1798344;77;21656;-57
2021/03/08 04:56:19;;;;;;;12.43;7.42;;;;;;;2.72;60.44;99744.99;1778507;77;21264;-58
2021/03/08 04:58:46;;;;;;;10.08;6.70;;;;;;;2.71;60.96;99751.57;1798285;77;21220;-57
2021/03/08 05:01:14;;;;;;;13.40;6.78;;;;;;;2.70;61.61;99758.98;1771241;78;21197;-58
2021/03/08 05:03:41;;;;;;;8.70;5.72;;;;;;;2.66;62.16;99755.72;1781614;78;21146;-58
2021/03/08 05:06:09;;;;;;;11.55;6.60;;;;;;;2.62;62.30;99758.10;1782166;78;21188;-58
2021/03/08 05:08:37;;;;;;;11.60;6.67;;;;;;;2.60;62.44;99756.06;1748667;80;21164;-58
2021/03/08 05:11:04;;;;;;;12.78;7.40;;;;;;;2.58;62.51;99755.32;1803183;77;21191;-58
2021/03/08 05:13:31;;;;;;;10.48;6.50;;;;;;;2.57;62.52;99758.83;1778275;80;21210;-58
2021/03/08 05:16:01;;;;;;;12.15;7.42;;;;;;;2.56;62.62;99761.90;1747144;78;21194;-57
2021/03/08 05:18:30;;;;;;;10.48;6.30;;;;;;;2.56;62.81;99759.77;1769216;78;21197;-58
2021/03/08 05:20:58;;;;;;;13.53;6.60;;;;;;;2.57;62.83;99757.53;1791584;77;21186;-58
2021/03/08 05:23:25;;;;;;;11.83;7.15;;;;;;;2.59;62.83;99762.20;1754131;80;21189;-56
2021/03/08 05:25:53;;;;;;;10.63;6.80;;;;;;;2.62;62.78;99767.20;1758532;80;21576;-57
2021/03/08 05:28:20;;;;;;;10.55;6.87;;;;;;;2.65;62.62;99771.39;1797735;78;21160;-57
2021/03/08 05:30:51;;;;;;;14.75;7.87;;;;;;;2.65;62.63;99764.42;1803403;79;21587;-57
2021/03/08 05:33:29;;;;;;;11.48;7.25;;;;;;;2.71;62.38;99767.16;1795886;79;21168;-57
2021/03/08 05:36:01;;;;;;;10.43;6.42;;;;;;;2.70;62.45;99766.30;1796767;79;21105;-58
2021/03/08 05:38:30;;;;;;;10.50;6.25;;;;;;;2.72;62.41;99767.07;1805099;78;21436;-59
2021/03/08 05:41:27;;;;;;;14.28;6.85;;;;;;;2.75;62.24;99773.84;1797366;79;21152;-57
2021/03/08 05:43:58;;;;;;;12.65;6.62;;;;;;;2.75;62.21;99770.77;1798374;79;21080;-57
2021/03/08 05:46:46;;;;;;;11.45;7.45;;;;;;;2.74;62.13;99772.16;1757979;79;21169;-57
2021/03/08 05:49:48;;;;;;;13.50;7.00;;;;;;;2.72;62.22;99782.66;1726413;79;21108;-58
2021/03/08 05:52:59;;;;;;;13.05;6.55;;;;;;;2.72;62.29;99787.86;1792937;79;21282;-57
2021/03/08 05:55:50;;;;;;;12.03;6.65;;;;;;;2.72;62.35;99788.30;1795958;77;21111;-57
2021/03/08 05:59:01;;;;;;;12.82;7.22;;;;;;;2.71;62.40;99792.66;1774653;79;21171;-55
2021/03/08 06:01:46;;;;;;;12.90;5.87;;;;;;;2.71;62.51;99806.95;1797833;79;21211;-59
2021/03/08 06:04:59;;;;;;;10.60;7.03;;;;;;;2.70;62.70;99804.44;1799344;79;21152;-57
2021/03/08 06:07:56;;;;;;;11.22;7.12;;;;;;;2.68;62.74;99805.83;1762318;79;21906;-59
2021/03/08 06:10:24;;;;;;;;;;;;;;;2.64;62.89;99805.63;1768871;79;21195;-59
2021/03/08 06:12:57;;;;;;;13.88;6.67;;;;;;;2.62;63.20;99823.05;1765952;79;20625;-60
2021/03/08 06:15:27;;;;;;;10.18;6.00;;;;;;;2.56;63.42;99814.31;1777419;79;21155;-59
2021/03/08 06:17:55;;;;;;;11.00;6.05;;;;;;;2.55;63.59;99817.82;1803413;77;21136;-59
2021/03/08 06:20:26;;;;;;;11.08;7.05;;;;;;;2.57;63.61;99825.06;1793526;79;21207;-59
2021/03/08 06:22:53;;;;;;;12.68;6.75;;;;;;;2.57;63.67;99827.66;1788309;78;21207;-59
2021/03/08 06:25:23;;;;;;;10.65;6.10;;;;;;;2.57;63.79;99828.52;1800664;77;21184;-59
2021/03/08 06:27:50;;;;;;;14.93;8.10;;;;;;;2.56;63.96;99841.59;1786672;78;21200;-62
2021/03/08 06:30:19;;;;;;;6.97;3.95;;;;;;;2.55;64.43;99853.72;1773626;78;21141;-59
2021/03/08 06:32:49;;;;;;;5.72;2.42;;;;;;;2.59;60.85;99853.11;1808429;78;21200;-61
2021/03/08 06:35:16;;;;;;;8.23;3.25;;;;;;;2.64;58.64;99853.69;1780761;78;22131;-62
2021/03/08 06:37:46;;;;;;;7.65;2.40;;;;;;;2.66;58.73;99858.34;1800402;77;21143;-59
2021/03/08 06:40:15;;;;;;;5.45;1.80;;;;;;;2.63;57.83;99858.50;1754877;80;21193;-63
2021/03/08 06:42:44;;;;;;;10.32;3.00;;;;;;;2.57;58.43;99866.18;1778547;78;21235;-62
2021/03/08 06:45:12;;;;;;;7.20;1.95;;;;;;;2.52;58.41;99860.84;1809366;79;23088;-62
2021/03/08 06:47:40;;;;;;;6.47;2.72;;;;;;;2.51;58.26;99869.58;1804389;79;21184;-62
2021/03/08 06:50:10;;;;;;;4.28;1.07;;;;;;;2.50;58.61;99858.80;1797409;79;21163;-61
2021/03/08 06:52:42;;;;;;;4.87;1.65;;;;;;;2.51;58.31;99857.89;1814084;77;21635;-61
2021/03/08 06:55:11;;;;;;;4.60;1.67;;;;;;;2.53;58.77;99863.36;1796685;78;21642;-61
2021/03/08 06:57:38;;;;;;;5.70;2.17;;;;;;;2.56;58.31;99871.45;1770833;79;21210;-63
2021/03/08 07:00:09;;;;;;;8.53;4.25;;;;;;;2.60;58.12;99874.25;1797225;79;21180;-60
2021/03/08 07:02:48;;;;;;;6.25;2.60;;;;;;;2.62;58.60;99857.28;1768162;79;21171;-62
2021/03/08 07:05:28;;;;;;;5.03;1.40;;;;;;;2.70;60.36;99861.59;1767002;79;21207;-64
2021/03/08 07:07:59;;;;;;;4.22;1.10;;;;;;;2.78;57.14;99868.03;1801916;77;21156;-59
2021/03/08 07:10:35;;;;;;;3.72;0.93;;;;;;;2.82;54.39;99870.46;1795341;77;22155;-60
2021/03/08 07:13:04;;;;;;;5.95;0.88;;;;;;;2.82;53.43;99865.27;1799911;79;21163;-63
2021/03/08 07:15:31;;;;;;;5.45;1.00;;;;;;;2.76;53.74;99869.88;1787855;78;21115;-65
2021/03/08 07:17:59;;;;;;;3.67;1.20;;;;;;;2.76;53.89;99871.66;1795217;78;21100;-69
2021/03/08 07:20:29;;;;;;;5.95;1.52;;;;;;;2.76;53.92;99875.08;1761645;79;21148;-61
2021/03/08 07:22:56;;;;;;;3.98;1.20;;;;;;;2.77;53.96;99871.57;1791821;77;21202;-60
2021/03/08 07:25:31;;;;;;;4.83;1.40;;;;;;;2.76;53.38;99880.28;1802106;77;21229;-60
2021/03/08 07:28:02;;;;;;;4.13;1.07;;;;;;;2.70;53.80;99879.30;1797635;77;21120;-68
2021/03/08 07:30:38;;;;;;;5.08;1.10;;;;;;;2.69;54.17;99880.25;1804263;78;21125;-62
2021/03/08 07:33:12;;;;;;;4.78;1.30;;;;;;;2.69;54.46;99889.34;1801993;77;21215;-62
2021/03/08 07:35:45;;;;;;;3.12;0.93;;;;;;;2.76;54.15;99880.28;1797566;78;21232;-61
2021/03/08 07:38:32;;;;;;;2.90;0.90;;;;;;;2.78;53.79;99882.80;1794734;77;21164;-59
2021/03/08 07:41:16;;;;;;;4.65;0.98;;;;;;;2.81;53.34;99874.83;1770861;79;21171;-60
2021/03/08 07:43:47;;;;;;;3.05;0.93;;;;;;;2.83;52.87;99881.25;1793388;79;21187;-59
2021/03/08 07:46:36;;;;;;;4.53;0.90;;;;;;;2.84;51.23;99875.97;1788427;78;21140;-60
2021/03/08 07:49:06;;;;;;;4.35;1.10;;;;;;;2.78;51.59;99884.92;1763282;80;21192;-60
2021/03/08 07:51:34;;;;;;;3.92;0.90;;;;;;;2.79;51.64;99873.61;1798453;77;21195;-60
2021/03/08 07:54:04;;;;;;;2.40;0.70;;;;;;;2.78;50.94;99887.52;1777709;78;21661;-60
2021/03/08 07:56:32;;;;;;;2.67;0.80;;;;;;;2.82;50.64;99883.45;1803778;78;21647;-69
2021/03/08 07:59:00;;;;;;;1.60;0.60;;;;;;;2.84;50.33;99885.06;1779520;78;21647;-69
2021/03/08 08:01:28;;;;;;;2.15;0.80;;;;;;;2.86;50.46;99892.73;1806896;77;22199;-67
2021/03/08 08:03:55;;;;;;;4.65;0.90;;;;;;;2.87;50.18;99885.33;1811466;77;21161;-65
2021/03/08 08:06:26;;;;;;;2.58;0.82;;;;;;;2.89;50.41;99906.42;1761901;79;21172;-69
2021/03/08 08:08:56;;;;;;;3.27;0.85;;;;;;;2.91;50.93;99899.38;1751431;80;21191;-70
2021/03/08 08:11:27;;;;;;;2.50;0.68;;;;;;;2.95;50.17;99894.84;1788525;78;21121;-68
2021/03/08 08:14:00;;;;;;;2.10;0.60;;;;;;;2.98;49.64;99890.77;1813684;77;21368;-66
2021/03/08 08:16:30;;;;;;;1.82;0.60;;;;;;;2.93;48.96;99885.00;1786411;77;21494;-68
2021/03/08 08:19:07;;;;;;;2.72;0.68;;;;;;;2.93;49.08;99891.50;1761255;79;21196;-64
2021/03/08 08:21:42;;;;;;;4.15;1.02;;;;;;;2.90;49.32;99883.87;1809743;78;21203;-68
2021/03/08 08:24:13;;;;;;;3.25;0.93;;;;;;;2.85;49.79;99886.72;1783536;78;21219;-73
2021/03/08 08:26:41;;;;;;;3.15;0.62;;;;;;;2.80;49.59;99883.53;1811542;77;21423;-71
2021/03/08 08:29:10;;;;;;;1.95;0.57;;;;;;;2.81;49.17;99881.77;1783179;78;21211;-61
2021/03/08 08:32:01;;;;;;;2.22;0.60;;;;;;;2.84;47.39;99882.90;1783280;77;21503;-67
2021/03/08 08:34:40;;;;;;;2.80;0.70;;;;;;;2.83;47.82;99897.66;1782637;78;21191;-70
2021/03/08 08:37:19;;;;;;;1.92;0.30;;;;;;;2.88;46.36;99919.03;1785697;78;21522;-69
2021/03/08 08:39:59;;;;;;;1.82;0.57;;;;;;;2.86;45.25;99884.94;1786487;77;21195;-69
2021/03/08 08:42:28;;;;;;;3.08;0.70;;;;;;;2.83;44.79;99896.84;1806384;77;21630;-65
2021/03/08 08:44:57;;;;;;;2.58;0.78;;;;;;;2.84;44.47;99891.99;1795293;78;21596;-66
2021/03/08 08:47:33;;;;;;;3.20;0.60;;;;;;;2.89;44.71;99877.84;1812956;77;22117;-64
2021/03/08 08:50:06;;;;;;;2.05;0.60;;;;;;;2.95;43.96;99878.77;1783545;78;21232;-69
2021/03/08 08:52:52;;;;;;;2.77;0.75;;;;;;;2.99;43.63;99888.53;1784583;77;21971;-67
2021/03/08 08:55:38;;;;;;;2.87;0.82;;;;;;;2.97;43.86;99887.31;1788621;78;27465;-66
2021/03/08 08:58:26;;;;;;;2.40;0.57;;;;;;;2.99;44.29;99892.43;1801548;77;21280;-71
2021/03/08 09:01:15;;;;;;;1.17;0.28;;;;;;;2.93;44.07;99892.80;1802971;77;21575;-65
2021/03/08 09:04:05;;;;;;;1.92;0.50;;;;;;;2.93;44.66;99892.80;1803058;77;21602;-72
2021/03/08 09:06:56;;;;;;;2.60;0.70;;;;;;;2.86;44.57;99895.34;1789738;78;21214;-70
2021/03/08 09:09:37;;;;;;;1.65;0.47;;;;;;;2.83;44.14;99895.53;1810843;77;21219;-70
2021/03/08 09:12:10;;;;;;;2.75;0.95;;;;;;;2.79;44.62;99897.00;1815941;77;21709;-68
2021/03/08 09:15:25;;;;;;;2.42;0.47;;;;;;;2.81;44.18;99882.62;1750331;79;22570;-68
2021/03/08 09:17:56;;;;;;;2.33;0.90;;;;;;;2.83;44.53;99903.33;1733909;82;21732;-72
2021/03/08 09:20:26;;;;;;;2.52;0.80;;;;;;;2.85;44.23;99911.88;1729874;81;21432;-69
2021/03/08 09:23:01;;;;;;;3.12;1.05;;;;;;;2.87;44.72;99896.55;1727327;81;21220;-66
2021/03/08 09:25:33;;;;;;;;;;;;;;;2.96;44.24;99895.23;1736166;82;21176;-63
2021/03/08 09:28:05;;;;;;;3.20;0.80;;;;;;;3.08;43.74;99895.83;1707994;82;20282;-67
2021/03/08 09:30:42;;;;;;;3.05;0.78;;;;;;;3.12;43.56;99896.48;1733362;81;22339;-68
2021/03/08 09:33:13;;;;;;;2.98;0.60;;;;;;;3.16;43.27;99904.03;1731141;81;21218;-73
2021/03/08 09:35:48;;;;;;;2.05;0.50;;;;;;;3.18;42.33;99916.08;1733060;82;21093;-66
2021/03/08 09:38:18;;;;;;;3.10;0.57;;;;;;;3.18;41.83;99903.09;1730944;82;21194;-65
2021/03/08 09:40:52;;;;;;;2.25;0.35;;;;;;;3.16;42.21;99911.83;1736855;82;21184;-63
2021/03/08 09:43:27;;;;;;;6.55;0.98;;;;;;;3.17;41.66;99916.55;1709297;82;21156;-68
2021/03/08 09:46:09;;;;;;;2.50;0.53;;;;;;;3.22;41.57;99919.73;1731136;82;21914;-68
2021/03/08 09:48:39;;;;;;;1.40;0.42;;;;;;;3.33;40.47;99911.33;1735700;82;21584;-63
2021/03/08 09:51:14;;;;;;;3.60;0.57;;;;;;;3.39;40.59;99913.56;1735909;82;21571;-63
2021/03/08 09:53:48;;;;;;;2.55;0.62;;;;;;;3.47;41.31;99913.95;1735271;82;21577;-66
2021/03/08 09:56:21;;;;;;;2.17;0.33;;;;;;;3.58;41.52;99913.80;1704198;82;21183;-70
2021/03/08 09:59:09;;;;;;;1.35;0.30;;;;;;;3.65;40.32;99921.16;1702575;82;21321;-64
2021/03/08 10:01:37;;;;;;;2.83;0.57;;;;;;;3.69;38.72;99923.12;1731010;82;21168;-66
2021/03/08 10:04:05;;;;;;;2.95;0.53;;;;;;;3.70;37.89;99923.50;1702466;82;21183;-66
2021/03/08 10:06:35;;;;;;;2.30;0.68;;;;;;;3.74;38.48;99917.17;1726845;82;21168;-67
2021/03/08 10:09:21;;;;;;;2.30;0.65;;;;;;;3.85;37.89;99910.88;1734011;82;22678;-66
2021/03/08 10:12:00;;;;;;;1.60;0.50;;;;;;;4.02;35.93;99901.23;1732639;82;21252;-69
2021/03/08 10:14:29;;;;;;;2.72;0.62;;;;;;;4.14;36.79;99905.67;1735481;82;21137;-67
2021/03/08 10:17:13;;;;;;;0.98;0.30;;;;;;;4.26;36.48;99922.32;1724806;82;21125;-66
2021/03/08 10:19:56;;;;;;;1.70;0.42;;;;;;;4.30;36.46;99902.95;1726115;81;21208;-68
2021/03/08 10:22:41;;;;;;;1.98;0.40;;;;;;;4.34;36.17;99920.09;1871540;76;23768;-67
2021/03/08 10:25:26;;;;;;;1.50;0.30;;;;;;;4.21;36.41;99905.66;1814488;77;21515;-66
2021/03/08 10:28:02;;;;;;;1.65;0.20;;;;;;;4.04;35.66;99896.75;1827695;75;21251;-66
2021/03/08 10:30:32;;;;;;;1.32;0.30;;;;;;;3.95;34.88;99915.52;1825667;77;21176;-66
2021/03/08 10:33:04;;;;;;;2.58;0.50;;;;;;;3.88;35.05;99905.94;1811175;77;21551;-65
2021/03/08 10:35:46;;;;;;;2.65;0.53;;;;;;;3.89;35.72;99908.92;1844046;77;21112;-66
2021/03/08 10:38:18;;;;;;;2.42;0.50;;;;;;;3.98;35.79;99912.73;1806089;77;21203;-72
2021/03/08 10:40:45;;;;;;;2.25;0.60;;;;;;;4.06;35.70;99897.49;1759311;77;22001;-63
2021/03/08 10:43:13;;;;;;;3.20;0.37;;;;;;;4.15;35.42;99904.73;1815374;77;21179;-65
2021/03/08 10:45:40;;;;;;;1.85;0.40;;;;;;;4.29;36.29;99902.61;1816159;75;21566;-64
2021/03/08 10:48:12;;;;;;;2.45;0.42;;;;;;;4.49;35.57;99911.80;1798730;77;21171;-67
2021/03/08 10:50:52;;;;;;;0.90;0.30;;;;;;;4.59;35.71;99900.30;1830427;77;21167;-64
2021/03/08 10:53:23;;;;;;;1.45;0.42;;;;;;;4.69;34.46;99904.48;1812750;77;21210;-64
2021/03/08 10:55:53;;;;;;;1.62;0.50;;;;;;;4.67;34.16;99904.56;1809745;77;21643;-67
2021/03/08 10:58:34;;;;;;;1.65;0.40;;;;;;;4.64;34.66;99895.67;1813719;77;21162;-72
2021/03/08 11:01:08;;;;;;;2.47;0.70;;;;;;;4.68;34.36;99904.95;1781920;78;21184;-65
2021/03/08 11:03:40;;;;;;;0.82;0.20;;;;;;;4.72;34.31;99884.73;1811303;77;21120;-65
2021/03/08 11:06:11;;;;;;;1.40;0.40;;;;;;;4.70;32.78;99898.34;1802878;78;21385;-67
2021/03/08 11:08:40;;;;;;;3.75;0.62;;;;;;;4.73;33.01;99894.24;1813357;77;21165;-65
2021/03/08 11:11:22;;;;;;;0.95;0.20;;;;;;;4.75;33.27;99899.71;1779842;77;21197;-64
2021/03/08 11:13:50;;;;;;;0.95;0.10;;;;;;;4.76;31.86;99905.78;1789930;77;21146;-68
2021/03/08 11:16:18;;;;;;;2.08;0.45;;;;;;;4.73;31.72;99907.27;1794120;77;21144;-66
2021/03/08 11:18:46;;;;;;;1.15;0.30;;;;;;;4.65;32.21;99892.94;1777863;80;21206;-65
2021/03/08 11:21:30;;;;;;;2.42;0.37;;;;;;;4.63;32.04;99891.38;1731691;79;22373;-67
2021/03/08 11:24:21;;;;;;;1.95;0.40;;;;;;;4.67;32.27;99886.80;1787199;78;21722;-70
2021/03/08 11:27:17;;;;;;;1.85;0.40;;;;;;;4.61;32.81;99899.77;1774308;78;21168;-67
2021/03/08 11:30:10;;;;;;;2.20;0.50;;;;;;;4.49;32.64;99894.86;1732334;78;21184;-65
2021/03/08 11:32:40;;;;;;;2.12;0.60;;;;;;;4.39;32.75;99899.80;1779076;78;21385;-66
2021/03/08 11:35:17;;;;;;;2.02;0.40;;;;;;;4.33;33.79;99894.95;1757196;80;21143;-64
2021/03/08 11:37:47;;;;;;;2.65;0.60;;;;;;;4.34;33.72;99902.30;1771217;78;21157;-66
2021/03/08 11:40:16;;;;;;;1.95;0.37;;;;;;;4.32;34.10;99879.42;1742631;80;21538;-67
2021/03/08 11:42:43;;;;;;;1.98;0.62;;;;;;;4.33;33.86;99900.64;1764663;78;21192;-64
2021/03/08 11:45:12;;;;;;;1.65;0.40;;;;;;;4.32;34.06;99892.45;1739074;80;21193;-65
2021/03/08 11:47:39;;;;;;;1.27;0.40;;;;;;;4.29;33.77;99896.09;1775691;78;21177;-65
2021/03/08 11:50:09;;;;;;;2.83;0.57;;;;;;;4.31;33.77;99893.40;1784800;78;21149;-65
2021/03/08 11:52:37;;;;;;;1.92;0.40;;;;;;;4.31;34.25;99902.52;1794034;78;21148;-68
2021/03/08 11:55:06;;;;;;;0.90;0.23;;;;;;;4.31;34.28;99908.55;1712115;81;21193;-64
2021/03/08 11:57:33;;;;;;;1.60;0.37;;;;;;;4.24;33.92;99922.41;1750843;80;21171;-70
2021/03/08 12:00:01;;;;;;;2.15;0.30;;;;;;;4.15;34.35;99903.90;1742325;79;21656;-66
2021/03/08 12:02:31;;;;;;;3.10;0.80;;;;;;;4.11;35.07;99895.45;1767224;78;21186;-65
2021/03/08 12:04:58;;;;;;;2.08;0.80;;;;;;;4.09;34.87;99904.65;1769611;78;21187;-70
2021/03/08 12:07:26;;;;;;;1.07;0.37;;;;;;;4.05;35.39;99888.00;1765163;79;21153;-64